Spring Grove, Nebraska
Current Conditions -  °F | °C
As of 8:55 PM on Monday 22 Dec 2014 (Local Time) from KHDE Reporting Station
Overcast Overcast  
Wind Chill: 29°   Ceiling: 6000
Heat Index: 37°   Visibility: 10mi
Dew Point: 32°   Wind: 15mph
Humidity: 80%   Direction: 300°WNW
Pressure: 29.57"   Gusts: 23mph
Location:  40.2849°N, 99.6171°W
Report Text: KHDE 230255Z AUTO 30013G20KT 10SM SCT046 BKN060 OVC080 03/00 A2957 RMK AO2 T00301001
Loading
Personal Weather Stations






























Interactive Weather Map New forecast layout! Learn more

10-Day Weather Forecast

Advertisements
Track Severe Weather on mobile